createdAt,value
2022-09-02T00:01:47.019Z,94596.28
2022-09-02T00:04:19.397Z,94598.88
2022-09-02T00:06:50.193Z,94592.09
2022-09-02T00:09:22.437Z,94588.72
2022-09-02T00:11:53.529Z,94593.69
2022-09-02T00:14:28.258Z,94590.31
2022-09-02T00:16:57.060Z,94585.53
2022-09-02T00:19:27.736Z,94590.53
2022-09-02T00:21:58.576Z,94590.19
2022-09-02T00:24:28.150Z,94589.91
2022-09-02T00:26:57.087Z,94594.97
2022-09-02T00:29:28.937Z,94596.88
2022-09-02T00:31:58.344Z,94596.06
2022-09-02T00:34:27.736Z,94602.03
2022-09-02T00:36:57.052Z,94599.47
2022-09-02T00:39:26.386Z,94610.00
2022-09-02T00:41:55.677Z,94595.69
2022-09-02T00:44:24.530Z,94604.63
2022-09-02T00:46:55.029Z,94601.66
2022-09-02T00:49:27.549Z,94599.25
2022-09-02T00:51:59.026Z,94600.56
2022-09-02T00:54:30.685Z,94604.66
2022-09-02T00:57:01.652Z,94605.56
2022-09-02T00:59:42.533Z,94604.94
2022-09-02T01:02:13.679Z,94602.44
2022-09-02T01:04:43.363Z,94603.69
2022-09-02T01:07:12.766Z,94610.63
2022-09-02T01:09:42.019Z,94616.59
2022-09-02T01:12:13.022Z,94613.50
2022-09-02T01:14:41.960Z,94617.97
2022-09-02T01:17:12.532Z,94630.28
2022-09-02T01:19:46.096Z,94627.00
2022-09-02T01:22:22.292Z,94623.50
2022-09-02T01:24:52.292Z,94631.97
2022-09-02T01:27:23.676Z,94623.13
2022-09-02T01:29:53.841Z,94632.47
2022-09-02T01:32:23.541Z,94637.75
2022-09-02T01:34:52.437Z,94634.06
2022-09-02T01:37:24.005Z,94632.31
2022-09-02T01:39:53.595Z,94631.63
2022-09-02T01:42:23.267Z,94636.25
2022-09-02T01:44:52.557Z,94641.34
2022-09-02T01:47:26.690Z,94635.47
2022-09-02T01:49:56.381Z,94628.66
2022-09-02T01:52:29.286Z,94634.03
2022-09-02T01:54:59.145Z,94631.94
2022-09-02T01:57:28.137Z,94628.94
2022-09-02T01:59:56.895Z,94626.94
2022-09-02T02:02:26.002Z,94618.25
2022-09-02T02:04:55.070Z,94618.59
2022-09-02T02:07:25.155Z,94614.81
2022-09-02T02:09:55.455Z,94609.94
2022-09-02T02:12:25.437Z,94604.06
2022-09-02T02:14:57.529Z,94602.88
2022-09-02T02:17:26.328Z,94607.84
2022-09-02T02:19:55.123Z,94605.75
2022-09-02T02:22:24.454Z,94601.06
2022-09-02T02:24:55.059Z,94592.00
2022-09-02T02:27:23.919Z,94582.06
2022-09-02T02:29:53.804Z,94584.38
2022-09-02T02:32:26.327Z,94578.88
2022-09-02T02:34:56.421Z,94578.72
2022-09-02T02:37:25.716Z,94582.19
2022-09-02T02:39:56.808Z,94574.59
2022-09-02T02:42:27.608Z,94588.53
2022-09-02T02:44:56.962Z,94577.09
2022-09-02T02:47:27.054Z,94566.09
2022-09-02T02:49:56.063Z,94566.09
2022-09-02T02:52:24.872Z,94570.06
2022-09-02T02:54:56.539Z,94560.13
2022-09-02T02:57:25.535Z,94552.38
2022-09-02T02:59:54.615Z,94565.78
2022-09-02T03:02:24.234Z,94561.41
2022-09-02T03:04:54.491Z,94553.63
2022-09-02T03:07:24.719Z,94552.31
2022-09-02T03:09:55.560Z,94560.09
2022-09-02T03:12:25.792Z,94555.31
2022-09-02T03:14:55.029Z,94569.31
2022-09-02T03:17:24.011Z,94566.00
2022-09-02T03:19:52.970Z,94576.06
2022-09-02T03:22:22.078Z,94570.88
2022-09-02T03:24:51.151Z,94572.03
2022-09-02T03:27:21.651Z,94568.66
2022-09-02T03:29:51.118Z,94571.06
2022-09-02T03:32:19.997Z,94583.59
2022-09-02T03:34:49.272Z,94572.81
2022-09-02T03:37:19.013Z,94570.09
2022-09-02T03:39:48.575Z,94570.00
2022-09-02T03:42:19.565Z,94573.94
2022-09-02T03:44:52.583Z,94575.84
2022-09-02T03:47:24.471Z,94583.47
2022-09-02T03:49:55.108Z,94589.06
2022-09-02T03:52:26.015Z,94594.72
2022-09-02T03:54:55.028Z,94595.94
2022-09-02T03:57:26.097Z,94601.53
2022-09-02T03:59:56.795Z,94600.53
2022-09-02T04:02:26.265Z,94616.13
2022-09-02T04:04:55.150Z,94614.94
2022-09-02T04:07:24.337Z,94617.09
2022-09-02T04:09:56.614Z,94608.41
2022-09-02T04:12:32.177Z,94617.59
2022-09-02T04:15:03.821Z,94616.59
2022-09-02T04:17:33.630Z,94620.81
2022-09-02T04:20:02.536Z,94622.09
2022-09-02T04:22:35.073Z,94619.91
2022-09-02T04:25:04.434Z,94630.63
2022-09-02T04:27:34.147Z,94623.91
2022-09-02T04:30:05.599Z,94635.94
2022-09-02T04:32:40.716Z,94635.44
2022-09-02T04:35:10.950Z,94631.34
2022-09-02T04:37:41.020Z,94638.22
2022-09-02T04:40:11.589Z,94633.34
2022-09-02T04:42:40.776Z,94630.97
2022-09-02T04:45:13.213Z,94636.25
2022-09-02T04:47:42.170Z,94641.13
2022-09-02T04:50:16.708Z,94633.34
2022-09-02T04:53:00.199Z,94636.03
2022-09-02T04:55:31.099Z,94641.63
2022-09-02T04:58:01.911Z,94643.88
2022-09-02T05:00:32.224Z,94640.03
2022-09-02T05:03:01.371Z,94649.38
2022-09-02T05:05:32.524Z,94645.59
2022-09-02T05:08:04.773Z,94652.06
2022-09-02T05:10:34.722Z,94646.59
2022-09-02T05:13:03.620Z,94645.38
2022-09-02T05:15:34.020Z,94653.75
2022-09-02T05:18:04.310Z,94658.53
2022-09-02T05:20:34.512Z,94649.19
2022-09-02T05:23:03.610Z,94655.34
2022-09-02T05:25:32.553Z,94659.03
2022-09-02T05:28:02.046Z,94652.78
2022-09-02T05:30:30.957Z,94651.38
2022-09-02T05:33:01.493Z,94657.44
2022-09-02T05:35:30.660Z,94651.09
2022-09-02T05:38:01.105Z,94659.84
2022-09-02T05:40:31.686Z,94651.72
2022-09-02T05:43:00.794Z,94650.72
2022-09-02T05:45:29.801Z,94656.00
2022-09-02T05:47:58.794Z,94649.63
2022-09-02T05:50:31.910Z,94649.88
2022-09-02T05:53:01.386Z,94649.72
2022-09-02T05:55:30.272Z,94648.53
2022-09-02T05:57:59.534Z,94645.75
2022-09-02T06:00:30.271Z,94647.34
2022-09-02T06:03:02.556Z,94648.34
2022-09-02T06:05:38.515Z,94644.84
2022-09-02T06:08:17.555Z,94646.03
2022-09-02T06:10:46.471Z,94651.41
2022-09-02T06:13:22.989Z,94646.25
2022-09-02T06:15:55.255Z,94648.53
2022-09-02T06:18:27.598Z,94653.72
2022-09-02T06:20:59.557Z,94650.09
2022-09-02T06:23:36.210Z,94660.25
2022-09-02T06:26:05.466Z,94660.97
2022-09-02T06:28:34.868Z,94656.28
2022-09-02T06:31:08.510Z,94657.88
2022-09-02T06:33:39.355Z,94663.63
2022-09-02T06:36:14.664Z,94660.25
2022-09-02T06:38:46.599Z,94668.97
2022-09-02T06:41:18.140Z,94668.09
2022-09-02T06:43:47.865Z,94675.16
2022-09-02T06:46:25.972Z,94676.75
2022-09-02T06:48:58.056Z,94687.88
2022-09-02T06:51:31.911Z,94684.09
2022-09-02T06:54:03.052Z,94686.06
2022-09-02T06:56:35.768Z,94687.34
2022-09-02T06:59:05.777Z,94696.91
2022-09-02T07:01:56.293Z,94689.88
2022-09-02T07:04:43.347Z,94690.13
2022-09-02T07:07:18.256Z,94692.22
2022-09-02T07:10:03.580Z,94692.41
2022-09-02T07:12:36.351Z,94697.78
2022-09-02T07:15:10.737Z,94697.97
2022-09-02T07:17:42.156Z,94694.16
2022-09-02T07:20:15.661Z,94702.06
2022-09-02T07:22:57.231Z,94699.25
2022-09-02T07:25:28.856Z,94706.53
2022-09-02T07:27:57.911Z,94700.34
2022-09-02T07:30:27.734Z,94710.44
2022-09-02T07:33:06.668Z,94708.31
2022-09-02T07:35:37.194Z,94713.09
2022-09-02T07:38:10.314Z,94709.91
2022-09-02T07:40:41.388Z,94710.50
2022-09-02T07:43:12.928Z,94707.03
2022-09-02T07:45:44.782Z,94708.25
2022-09-02T07:48:16.077Z,94710.31
2022-09-02T07:50:47.627Z,94709.41
2022-09-02T07:53:21.768Z,94713.41
2022-09-02T07:55:51.696Z,94713.25
2022-09-02T07:58:22.707Z,94722.00
2022-09-02T08:00:52.912Z,94717.28
2022-09-02T08:03:22.921Z,94726.09
2022-09-02T08:05:55.719Z,94731.66
2022-09-02T08:08:28.648Z,94738.31
2022-09-02T08:10:58.144Z,94731.50
2022-09-02T08:13:27.701Z,94733.91
2022-09-02T08:15:57.351Z,94726.56
2022-09-02T08:18:26.548Z,94733.34
2022-09-02T08:20:55.938Z,94734.28
2022-09-02T08:23:36.841Z,94739.38
2022-09-02T08:26:07.560Z,94741.66
2022-09-02T08:28:36.528Z,94736.94
2022-09-02T08:31:08.855Z,94739.41
2022-09-02T08:33:38.448Z,94740.25
2022-09-02T08:36:11.273Z,94731.75
2022-09-02T08:38:42.216Z,94731.66
2022-09-02T08:41:19.487Z,94724.34
2022-09-02T08:43:50.372Z,94733.84
2022-09-02T08:46:20.222Z,94722.03
2022-09-02T08:48:53.149Z,94732.50
2022-09-02T08:51:23.303Z,94729.16
2022-09-02T08:54:00.371Z,94731.50
2022-09-02T08:56:29.542Z,94726.16
2022-09-02T08:59:02.569Z,94723.00
2022-09-02T09:01:44.407Z,94729.66
2022-09-02T09:04:46.026Z,94727.84
2022-09-02T09:07:26.382Z,94729.34
2022-09-02T09:10:17.747Z,94731.00
2022-09-02T09:13:03.005Z,94728.38
2022-09-02T09:15:41.012Z,94726.97
2022-09-02T09:18:13.399Z,94723.31
2022-09-02T09:20:44.986Z,94719.06
2022-09-02T09:23:26.997Z,94725.22
2022-09-02T09:26:06.695Z,94730.72
2022-09-02T09:28:42.534Z,94713.66
2022-09-02T09:31:15.125Z,94721.78
2022-09-02T09:33:57.279Z,94711.50
2022-09-02T09:36:48.326Z,94711.41
2022-09-02T09:39:26.217Z,94714.69
2022-09-02T09:41:58.606Z,94703.31
2022-09-02T09:44:40.593Z,94700.03
2022-09-02T09:47:17.356Z,94706.53
2022-09-02T09:49:47.469Z,94710.97
2022-09-02T09:52:27.671Z,94710.84
2022-09-02T09:55:14.191Z,94715.81
2022-09-02T09:57:46.632Z,94701.16
2022-09-02T10:00:21.722Z,94699.72
2022-09-02T10:02:52.670Z,94701.84
2022-09-02T10:05:32.502Z,94703.28
2022-09-02T10:08:03.111Z,94708.22
2022-09-02T10:10:34.502Z,94706.16
2022-09-02T10:13:23.448Z,94714.28
2022-09-02T10:16:07.095Z,94712.06
2022-09-02T10:18:43.320Z,94712.84
2022-09-02T10:43:06.508Z,94707.88
2022-09-02T10:45:38.870Z,94703.00
2022-09-02T10:48:29.825Z,94701.25
2022-09-02T10:51:07.182Z,94696.34
2022-09-02T10:53:48.344Z,94700.66
2022-09-02T10:56:22.235Z,94696.38
2022-09-02T11:01:33.821Z,94695.50
2022-09-02T11:04:10.148Z,94697.25
2022-09-02T11:07:02.100Z,94709.50
2022-09-02T11:09:37.291Z,94696.63
2022-09-02T11:12:11.311Z,94695.19
2022-09-02T11:14:54.224Z,94701.88
2022-09-02T11:17:32.531Z,94700.44
2022-09-02T11:20:09.956Z,94695.84
2022-09-02T11:22:46.671Z,94693.16
2022-09-02T11:25:22.621Z,94681.56
2022-09-02T11:28:00.996Z,94689.84
2022-09-02T11:30:40.289Z,94690.97
2022-09-02T11:33:17.447Z,94689.03
2022-09-02T11:35:46.581Z,94681.88
2022-09-02T11:38:34.464Z,94684.25
2022-09-02T11:41:34.222Z,94689.84
2022-09-02T11:44:36.435Z,94682.53
2022-09-02T11:47:31.600Z,94687.44
2022-09-02T11:50:22.145Z,94687.63
2022-09-02T11:53:06.264Z,94687.78
2022-09-02T11:55:38.910Z,94673.78
2022-09-02T11:58:07.923Z,94678.22
2022-09-02T12:00:58.616Z,94681.41
2022-09-02T12:03:58.434Z,94680.59
2022-09-02T12:06:21.990Z,94683.75
2022-09-02T12:09:18.985Z,94675.50
2022-09-02T12:11:55.205Z,94681.34
2022-09-02T12:15:06.737Z,94678.16
2022-09-02T12:18:07.283Z,94675.78
2022-09-02T12:21:18.311Z,94674.47
2022-09-02T12:24:22.204Z,94665.44
2022-09-02T12:27:24.438Z,94666.06
2022-09-02T12:29:54.007Z,94652.88
2022-09-02T12:33:01.212Z,94655.88
2022-09-02T12:35:51.774Z,94654.09
2022-09-02T12:38:36.422Z,94649.00
2022-09-02T12:41:29.770Z,94655.06
2022-09-02T12:44:25.792Z,94656.31
2022-09-02T12:47:02.772Z,94650.09
2022-09-02T12:49:50.461Z,94645.94
2022-09-02T12:52:44.627Z,94638.44
2022-09-02T12:55:21.025Z,94647.34
2022-09-02T12:57:52.729Z,94642.50
2022-09-02T13:00:32.944Z,94643.44
2022-09-02T13:03:19.477Z,94641.25
2022-09-02T13:05:57.495Z,94641.88
2022-09-02T13:09:05.462Z,94640.78
2022-09-02T13:12:14.713Z,94634.75
2022-09-02T13:15:04.357Z,94646.84
2022-09-02T13:17:48.498Z,94641.59
2022-09-02T13:20:55.132Z,94643.66
2022-09-02T13:24:10.389Z,94636.16
2022-09-02T13:27:08.720Z,94627.06
2022-09-02T13:30:07.146Z,94624.06
2022-09-02T13:32:37.660Z,94626.47
2022-09-02T13:35:09.492Z,94631.53
2022-09-02T13:37:40.519Z,94636.59
2022-09-02T13:40:20.845Z,94639.84
2022-09-02T13:42:53.563Z,94640.22
2022-09-02T13:45:24.154Z,94637.47
2022-09-02T13:47:55.273Z,94638.03
2022-09-02T13:50:27.261Z,94633.16
2022-09-02T13:55:53.384Z,94630.28
2022-09-02T13:58:36.059Z,94629.72
2022-09-02T14:01:26.242Z,94624.25
2022-09-02T14:03:58.185Z,94625.19
2022-09-02T14:06:29.834Z,94633.03
2022-09-02T14:09:02.784Z,94621.81
2022-09-02T14:11:34.542Z,94634.72
2022-09-02T14:14:05.303Z,94636.31
2022-09-02T14:16:36.038Z,94643.09
2022-09-02T14:19:07.280Z,94642.53
2022-09-02T14:21:38.215Z,94646.59
2022-09-02T14:24:13.041Z,94647.19
2022-09-02T14:26:44.804Z,94648.34
2022-09-02T14:29:17.805Z,94642.47
2022-09-02T14:31:48.085Z,94648.00
2022-09-02T14:34:37.510Z,94650.91
2022-09-02T14:37:21.153Z,94656.13
2022-09-02T14:40:09.646Z,94654.97
2022-09-02T14:42:46.930Z,94654.28
2022-09-02T14:45:27.740Z,94661.38
2022-09-02T14:47:58.131Z,94673.25
2022-09-02T14:50:31.248Z,94674.72
2022-09-02T14:53:03.828Z,94672.09
2022-09-02T14:55:47.266Z,94680.16
2022-09-02T14:58:16.855Z,94685.66
2022-09-02T15:00:52.298Z,94688.41
2022-09-02T15:03:22.138Z,94693.44
2022-09-02T15:05:52.494Z,94684.66
2022-09-02T15:08:22.078Z,94674.09
2022-09-02T15:10:51.320Z,94685.53
2022-09-02T15:13:27.918Z,94689.50
2022-09-02T15:15:59.632Z,94677.44
2022-09-02T15:18:28.878Z,94687.84
2022-09-02T15:20:58.008Z,94692.47
2022-09-02T15:23:28.373Z,94692.16
2022-09-02T15:25:57.830Z,94694.84
2022-09-02T15:28:26.816Z,94688.91
2022-09-02T15:31:00.781Z,94696.13
2022-09-02T15:33:30.692Z,94705.59
2022-09-02T15:36:07.739Z,94698.13
2022-09-02T15:38:37.883Z,94711.03
2022-09-02T15:41:18.641Z,94717.75
2022-09-02T15:43:49.132Z,94727.09
2022-09-02T15:46:25.780Z,94725.88
2022-09-02T15:48:59.034Z,94742.66
2022-09-02T15:51:31.369Z,94745.19
2022-09-02T15:54:01.939Z,94744.19
2022-09-02T15:56:32.912Z,94744.00
2022-09-02T15:59:03.695Z,94741.06
2022-09-02T16:01:35.583Z,94744.41
2022-09-02T16:04:05.275Z,94753.50
2022-09-02T16:06:36.721Z,94743.03
2022-09-02T16:09:05.978Z,94746.56
2022-09-02T16:11:35.356Z,94746.50
2022-09-02T16:14:04.486Z,94741.66
2022-09-02T16:16:36.091Z,94738.75
2022-09-02T16:19:07.202Z,94737.84
2022-09-02T16:21:39.314Z,94739.81
2022-09-02T16:24:09.123Z,94742.66
2022-09-02T16:26:39.563Z,94750.53
2022-09-02T16:29:10.473Z,94754.50
2022-09-02T16:31:42.851Z,94751.41
2022-09-02T16:34:13.658Z,94745.34
2022-09-02T16:36:44.356Z,94751.13
2022-09-02T16:39:14.634Z,94760.22
2022-09-02T16:41:45.834Z,94759.84
2022-09-02T16:44:17.478Z,94759.03
2022-09-02T16:46:49.454Z,94766.69
2022-09-02T16:49:20.187Z,94769.63
2022-09-02T16:51:50.648Z,94765.34
2022-09-02T16:54:31.287Z,94759.88
2022-09-02T16:57:01.806Z,94763.19
2022-09-02T16:59:31.800Z,94764.38
2022-09-02T17:02:02.356Z,94763.31
2022-09-02T17:04:31.329Z,94762.34
2022-09-02T17:07:00.411Z,94757.81
2022-09-02T17:09:29.446Z,94760.00
2022-09-02T17:11:58.571Z,94760.06
2022-09-02T17:14:27.609Z,94751.31
2022-09-02T17:16:56.659Z,94764.72
2022-09-02T17:19:32.142Z,94761.06
2022-09-02T17:22:01.636Z,94763.44
2022-09-02T17:24:31.844Z,94766.31
2022-09-02T17:27:01.397Z,94761.88
2022-09-02T17:29:48.664Z,94781.41
2022-09-02T17:32:18.257Z,94773.63
2022-09-02T17:34:51.077Z,94784.69
2022-09-02T17:37:21.592Z,94776.88
2022-09-02T17:39:51.312Z,94778.50
2022-09-02T17:42:21.510Z,94786.63
2022-09-02T17:44:50.600Z,94777.56
2022-09-02T17:47:21.427Z,94784.34
2022-09-02T17:49:52.135Z,94773.75
2022-09-02T17:52:23.234Z,94785.25
2022-09-02T17:54:53.475Z,94782.06
2022-09-02T17:57:31.394Z,94781.06
2022-09-02T18:00:08.410Z,94783.75
2022-09-02T18:03:12.401Z,94792.59
2022-09-02T18:05:57.956Z,94785.94
2022-09-02T18:08:35.353Z,94788.03
2022-09-02T18:11:07.413Z,94792.56
2022-09-02T18:13:48.322Z,94795.56
2022-09-02T18:16:32.451Z,94791.75
2022-09-02T18:19:14.428Z,94799.53
2022-09-02T18:21:54.688Z,94805.13
2022-09-02T18:24:36.771Z,94820.31
2022-09-02T18:27:12.444Z,94824.47
2022-09-02T18:29:57.151Z,94837.03
2022-09-02T18:32:45.353Z,94839.50
2022-09-02T18:35:23.178Z,94839.47
2022-09-02T18:38:02.295Z,94833.09
2022-09-02T18:40:44.343Z,94829.88
2022-09-02T18:43:22.277Z,94842.44
2022-09-02T18:45:52.859Z,94850.19
2022-09-02T18:48:27.004Z,94842.19
2022-09-02T18:51:00.252Z,94840.34
2022-09-02T18:53:41.122Z,94837.13
2022-09-02T18:56:13.481Z,94837.44
2022-09-02T18:58:48.144Z,94848.59
2022-09-02T19:01:25.074Z,94850.19
2022-09-02T19:03:54.565Z,94847.72
2022-09-02T19:06:26.209Z,94853.03
2022-09-02T19:08:59.104Z,94855.97
2022-09-02T19:11:29.063Z,94854.94
2022-09-02T19:14:03.027Z,94856.28
2022-09-02T19:16:36.400Z,94858.09
2022-09-02T19:19:06.637Z,94847.38
2022-09-02T19:21:41.222Z,94843.13
2022-09-02T19:24:14.798Z,94852.25
2022-09-02T19:26:46.089Z,94859.44
2022-09-02T19:29:17.631Z,94859.53
2022-09-02T19:31:48.343Z,94858.16
2022-09-02T19:34:19.790Z,94850.72
2022-09-02T19:36:51.074Z,94860.84
2022-09-02T19:39:21.778Z,94859.75
2022-09-02T19:41:50.746Z,94848.84
2022-09-02T19:44:20.467Z,94855.75
2022-09-02T19:47:49.858Z,94854.44
2022-09-02T19:49:39.084Z,94861.91
2022-09-02T19:52:08.358Z,94855.56
2022-09-02T19:54:39.068Z,94852.06
2022-09-02T19:57:07.986Z,94853.94
2022-09-02T19:59:36.853Z,94849.66
2022-09-02T20:02:06.554Z,94847.81
2022-09-02T20:04:35.500Z,94847.00
2022-09-02T20:07:04.501Z,94846.75
2022-09-02T20:09:33.465Z,94851.00
2022-09-02T20:12:04.982Z,94847.78
2022-09-02T20:14:36.344Z,94848.88
2022-09-02T20:17:10.525Z,94854.50
2022-09-02T20:19:43.506Z,94848.06
2022-09-02T20:22:15.108Z,94853.44
2022-09-02T20:24:44.453Z,94847.59
2022-09-02T20:27:23.457Z,94848.66
2022-09-02T20:30:03.608Z,94857.75
2022-09-02T20:32:44.572Z,94855.63
2022-09-02T20:35:33.569Z,94855.38
2022-09-02T20:38:16.887Z,94853.47
2022-09-02T20:40:55.195Z,94847.88
2022-09-02T20:43:47.595Z,94844.13
2022-09-02T20:46:28.017Z,94848.41
2022-09-02T20:49:12.077Z,94847.06
2022-09-02T20:51:48.194Z,94848.94
2022-09-02T20:54:31.533Z,94840.91
2022-09-02T20:57:07.592Z,94851.28
2022-09-02T20:59:49.598Z,94867.88
2022-09-02T21:02:21.883Z,94857.69
2022-09-02T21:04:55.884Z,94859.03
2022-09-02T21:07:28.030Z,94855.03
2022-09-02T21:10:06.652Z,94859.28
2022-09-02T21:12:42.917Z,94861.16
2022-09-02T21:15:27.650Z,94864.38
2022-09-02T21:18:03.558Z,94870.53
2022-09-02T21:20:44.091Z,94868.97
2022-09-02T21:23:21.617Z,94876.75
2022-09-02T21:25:55.969Z,94873.56
2022-09-02T21:28:33.929Z,94869.81
2022-09-02T21:31:10.047Z,94866.06
2022-09-02T21:33:38.933Z,94869.84
2022-09-02T21:36:08.275Z,94869.31
2022-09-02T21:38:41.310Z,94863.44
2022-09-02T21:41:30.279Z,94870.38
2022-09-02T21:44:06.602Z,94874.09
2022-09-02T21:46:48.603Z,94869.28
2022-09-02T21:49:32.477Z,94872.47
2022-09-02T21:52:13.858Z,94877.84
2022-09-02T21:54:59.109Z,94870.03
2022-09-02T21:57:43.484Z,94880.78
2022-09-02T22:00:16.099Z,94872.72
2022-09-02T22:02:58.265Z,94875.44
2022-09-02T22:05:43.301Z,94872.22
2022-09-02T22:08:22.667Z,94873.28
2022-09-02T22:11:02.629Z,94881.31
2022-09-02T22:13:32.836Z,94877.34
2022-09-02T22:16:16.379Z,94885.03
2022-09-02T22:18:52.532Z,94892.78
2022-09-02T22:21:30.517Z,94882.38
2022-09-02T22:23:59.669Z,94877.31
2022-09-02T22:26:38.425Z,94879.22
2022-09-02T22:29:14.607Z,94880.78
2022-09-02T22:31:45.999Z,94874.59
2022-09-02T22:34:18.741Z,94876.19
2022-09-02T22:37:01.788Z,94882.34
2022-09-02T22:39:37.857Z,94876.47
2022-09-02T22:42:13.872Z,94875.66
2022-09-02T22:45:06.665Z,94876.47
2022-09-02T22:47:55.108Z,94873.03
2022-09-02T22:50:50.175Z,94873.84
2022-09-02T22:53:19.111Z,94864.78
2022-09-02T22:55:58.640Z,94867.69
2022-09-02T22:58:59.667Z,94863.72
2022-09-02T23:01:36.848Z,94860.28
2022-09-02T23:04:23.515Z,94864.53
2022-09-02T23:06:55.422Z,94856.53
2022-09-02T23:09:24.291Z,94853.31
2022-09-02T23:12:02.516Z,94859.72
2022-09-02T23:14:42.019Z,94851.16
2022-09-02T23:17:25.757Z,94860.53
2022-09-02T23:20:05.216Z,94859.47
2022-09-02T23:22:56.635Z,94862.69
2022-09-02T23:25:35.699Z,94858.94
2022-09-02T23:28:15.313Z,94857.31
2022-09-02T23:31:03.129Z,94865.06
2022-09-02T23:33:51.434Z,94857.06
2022-09-02T23:36:35.327Z,94860.56
2022-09-02T23:39:25.288Z,94867.47
2022-09-02T23:42:00.869Z,94872.06
2022-09-02T23:44:31.269Z,94877.91
2022-09-02T23:47:13.336Z,94865.88
2022-09-02T23:49:53.054Z,94870.69
2022-09-02T23:52:33.771Z,94865.91
2022-09-02T23:55:13.542Z,94870.69
2022-09-02T23:58:05.379Z,94876.84
